Time;durP1;ratioP1;P1;durP2;ratioP2;P2;SDS_P1;SDS_P2;PMS_P1;PMS_P2;Temp;Humidity;BMP_temperature;BMP_pressure;BME280_temperature;BME280_humidity;BME280_pressure;Samples;Min_cycle;Max_cycle;Signal;HPM_P1;HPM_P2
2022/08/12 00:44:54;;;;;;;9.40;6.40;;;18.80;67.50;;;;;;5078521;28;20489;-86
2022/08/12 00:47:20;;;;;;;11.43;5.75;;;18.80;67.40;;;;;;5083982;28;20017;-85
2022/08/12 00:49:50;;;;;;;9.03;6.00;;;18.70;67.50;;;;;;5070636;28;20069;-85
2022/08/12 00:52:18;;;;;;;9.02;5.88;;;18.70;67.60;;;;;;5069787;28;20127;-85
2022/08/12 00:54:51;;;;;;;;;;;18.70;68.00;;;;;;5073435;28;20025;-86
2022/08/12 00:57:27;;;;;;;12.07;6.53;;;18.70;67.40;;;;;;5072821;28;19957;-87
2022/08/12 01:00:12;;;;;;;8.70;6.28;;;18.60;68.00;;;;;;5072807;28;20032;-85
2022/08/12 01:02:44;;;;;;;13.68;6.30;;;18.60;68.10;;;;;;5060919;28;20050;-85
2022/08/12 01:13:35;;;;;;;11.75;5.97;;;18.50;68.40;;;;;;5072997;28;20071;-85
2022/08/12 01:16:04;;;;;;;7.68;5.72;;;18.50;68.50;;;;;;5070680;28;20401;-85
2022/08/12 01:18:32;;;;;;;11.25;6.30;;;18.50;68.60;;;;;;5064423;28;20025;-84
2022/08/12 01:21:32;;;;;;;11.23;5.88;;;18.50;68.60;;;;;;5070282;28;20020;-86
2022/08/12 01:24:07;;;;;;;14.00;6.30;;;18.40;68.80;;;;;;5072182;28;20016;-86
2022/08/12 01:26:33;;;;;;;9.35;5.63;;;18.50;68.90;;;;;;5071823;28;20083;-85
2022/08/12 01:29:00;;;;;;;14.30;6.78;;;18.40;68.70;;;;;;5071845;28;20025;-87
2022/08/12 01:31:28;;;;;;;10.57;5.80;;;18.40;68.80;;;;;;5074238;28;20032;-85
2022/08/12 01:33:58;;;;;;;10.73;5.38;;;18.40;68.90;;;;;;5065318;28;20371;-86
2022/08/12 01:36:27;;;;;;;11.43;6.03;;;18.40;69.10;;;;;;5071321;28;20046;-85
2022/08/12 01:39:00;;;;;;;13.15;6.28;;;18.40;69.10;;;;;;5076673;28;20047;-85
2022/08/12 01:41:30;;;;;;;7.45;5.60;;;18.40;69.00;;;;;;5084135;28;20367;-85
2022/08/12 01:44:00;;;;;;;10.85;5.82;;;18.40;69.70;;;;;;5088683;28;20084;-83
2022/08/12 01:46:51;;;;;;;11.80;5.85;;;18.40;69.00;;;;;;5077242;28;20013;-83
2022/08/12 01:49:20;;;;;;;9.18;4.93;;;18.40;68.80;;;;;;5071324;28;20132;-83
2022/08/12 01:51:54;;;;;;;9.32;5.95;;;18.40;69.30;;;;;;5068149;28;20107;-82
2022/08/12 01:54:21;;;;;;;10.98;6.07;;;18.40;69.50;;;;;;5073763;28;20158;-83
2022/08/12 01:56:50;;;;;;;10.48;5.88;;;18.40;69.50;;;;;;5073075;28;20374;-84
2022/08/12 02:00:12;;;;;;;11.05;5.90;;;18.30;69.50;;;;;;5071743;28;20082;-84
2022/08/12 02:02:31;;;;;;;10.82;5.40;;;18.30;70.10;;;;;;5071954;28;20041;-85
2022/08/12 02:11:30;;;;;;;9.30;5.65;;;18.30;70.60;;;;;;5060099;28;20032;-86
2022/08/12 02:14:22;;;;;;;11.55;5.93;;;18.30;70.50;;;;;;5066616;28;20051;-86
2022/08/12 02:16:49;;;;;;;9.15;6.13;;;18.20;70.70;;;;;;5064394;28;20144;-83
2022/08/12 02:19:33;;;;;;;8.38;5.90;;;18.20;71.00;;;;;;5057655;28;20075;-83
2022/08/12 02:22:28;;;;;;;12.30;6.35;;;18.20;71.00;;;;;;5064373;28;20142;-82
2022/08/12 02:25:09;;;;;;;11.40;5.50;;;18.20;71.20;;;;;;5066380;28;20021;-84
2022/08/12 02:27:41;;;;;;;12.60;6.00;;;18.20;71.10;;;;;;5070191;28;20044;-83
2022/08/12 02:30:11;;;;;;;12.15;6.45;;;18.30;71.20;;;;;;5084669;28;20432;-84
2022/08/12 02:32:42;;;;;;;15.15;6.40;;;18.30;71.30;;;;;;5062689;28;20055;-83
2022/08/12 02:35:13;;;;;;;12.40;6.93;;;18.40;70.60;;;;;;5063188;28;20044;-85
2022/08/12 02:37:42;;;;;;;11.15;6.07;;;18.40;70.90;;;;;;5062011;28;20096;-86
2022/08/12 02:40:11;;;;;;;10.60;5.80;;;18.40;70.40;;;;;;5061267;28;20055;-86
2022/08/12 02:43:06;;;;;;;8.90;5.55;;;18.50;71.00;;;;;;5075096;28;20020;-85
2022/08/12 02:45:40;;;;;;;17.42;6.47;;;18.60;71.30;;;;;;5058933;28;20111;-85
2022/08/12 02:48:08;;;;;;;20.15;7.97;;;18.60;71.10;;;;;;5069027;28;20098;-84
2022/08/12 02:50:38;;;;;;;;;;;18.60;70.10;;;;;;5074340;28;20056;-84
2022/08/12 02:53:04;;;;;;;13.27;6.22;;;18.70;69.60;;;;;;5072299;28;19911;-83
2022/08/12 02:55:34;;;;;;;13.07;7.43;;;18.80;69.50;;;;;;5056118;28;20423;-82
2022/08/12 02:58:08;;;;;;;11.20;7.00;;;18.90;69.40;;;;;;5068216;28;20419;-83
2022/08/12 03:00:36;;;;;;;11.38;6.80;;;18.90;69.30;;;;;;5061609;28;20071;-83
2022/08/12 03:03:07;;;;;;;11.55;6.50;;;19.00;69.30;;;;;;5072506;28;20040;-87
2022/08/12 03:05:37;;;;;;;15.13;7.22;;;19.00;68.90;;;;;;5072984;28;20013;-89
2022/08/12 03:08:08;;;;;;;13.18;7.15;;;19.10;68.40;;;;;;5076603;28;20097;-87
2022/08/12 03:10:40;;;;;;;15.38;7.25;;;19.20;68.60;;;;;;5069531;28;20029;-87
2022/08/12 03:13:08;;;;;;;11.40;6.88;;;19.20;68.60;;;;;;5057778;28;20041;-86
2022/08/12 03:15:35;;;;;;;9.80;6.55;;;19.30;68.60;;;;;;5056207;28;20075;-89
2022/08/12 03:18:13;;;;;;;11.43;7.07;;;19.40;68.80;;;;;;5055250;28;20021;-87
2022/08/12 03:20:39;;;;;;;13.32;7.13;;;19.50;68.50;;;;;;5072586;28;20436;-87
2022/08/12 03:23:13;;;;;;;15.50;8.07;;;19.50;67.90;;;;;;5064557;28;20432;-88
2022/08/12 03:25:41;;;;;;;16.90;7.18;;;19.60;67.50;;;;;;5056223;28;20032;-86
2022/08/12 03:28:12;;;;;;;18.60;8.13;;;19.70;68.10;;;;;;5072283;28;20047;-89
2022/08/12 03:30:41;;;;;;;16.27;8.32;;;19.80;67.50;;;;;;5056116;28;20106;-87
2022/08/12 03:33:12;;;;;;;22.38;7.85;;;19.90;67.30;;;;;;5058285;28;20478;-86
2022/08/12 03:35:41;;;;;;;17.65;8.40;;;20.00;67.20;;;;;;5073863;28;20031;-88
2022/08/12 03:38:10;;;;;;;14.55;9.45;;;20.00;66.90;;;;;;5054549;28;20354;-89
2022/08/12 04:00:22;;;;;;;15.48;8.65;;;20.60;65.20;;;;;;5073854;28;20031;-87
2022/08/12 04:02:54;;;;;;;18.27;10.20;;;20.60;65.20;;;;;;5073001;28;20029;-89
2022/08/12 04:05:21;;;;;;;23.05;10.25;;;20.70;64.20;;;;;;5073232;28;20365;-85
2022/08/12 04:07:47;;;;;;;18.10;10.93;;;20.80;64.10;;;;;;5069631;28;20497;-85
2022/08/12 04:10:13;;;;;;;18.75;10.00;;;20.80;64.00;;;;;;5107328;27;20136;-87
2022/08/12 04:15:27;;;;;;;16.83;9.30;;;20.90;63.20;;;;;;5065534;28;20089;-84
2022/08/12 04:17:54;;;;;;;19.70;11.02;;;21.00;63.60;;;;;;5072160;28;20020;-88
2022/08/12 04:20:22;;;;;;;19.15;9.55;;;21.10;63.40;;;;;;5069103;28;20024;-87
2022/08/12 04:22:48;;;;;;;19.75;9.60;;;21.10;63.60;;;;;;5053990;28;20028;-91
2022/08/12 04:25:14;;;;;;;16.60;9.50;;;21.20;63.30;;;;;;5071794;28;20024;-89
2022/08/12 04:27:44;;;;;;;21.63;10.13;;;21.30;62.70;;;;;;5073514;28;20040;-90
2022/08/12 04:30:11;;;;;;;20.27;9.52;;;21.40;62.50;;;;;;5061288;28;20044;-90
2022/08/12 04:32:38;;;;;;;14.80;8.88;;;21.50;62.50;;;;;;5060327;28;20013;-90
2022/08/12 04:35:04;;;;;;;18.55;10.10;;;21.60;62.40;;;;;;5066718;28;20029;-89
2022/08/12 04:37:30;;;;;;;14.68;9.80;;;21.60;62.00;;;;;;5089162;28;20025;-87
2022/08/12 04:39:57;;;;;;;15.20;9.88;;;21.70;61.50;;;;;;5078129;28;20032;-89
2022/08/12 04:42:24;;;;;;;19.83;10.27;;;21.80;62.00;;;;;;5071411;28;20024;-88
2022/08/12 04:44:50;;;;;;;17.83;9.57;;;21.90;62.00;;;;;;5077488;28;20020;-90
2022/08/12 04:47:16;;;;;;;16.02;8.93;;;21.90;61.90;;;;;;5077728;28;20739;-89
2022/08/12 04:49:45;;;;;;;18.63;10.27;;;22.00;61.20;;;;;;5062258;28;20107;-89
2022/08/12 04:52:11;;;;;;;19.30;9.75;;;22.30;61.50;;;;;;5078639;28;20386;-89
2022/08/12 04:54:37;;;;;;;18.35;9.02;;;22.90;60.00;;;;;;5073554;28;20031;-91
2022/08/12 04:57:04;;;;;;;22.38;10.93;;;23.70;58.60;;;;;;5073789;28;20016;-90
2022/08/12 04:59:31;;;;;;;15.35;9.75;;;24.70;56.20;;;;;;5073851;28;20111;-89
2022/08/12 05:01:57;;;;;;;15.10;8.40;;;25.70;53.70;;;;;;5073031;28;20092;-89
2022/08/12 05:04:27;;;;;;;13.60;9.25;;;26.60;51.40;;;;;;5073200;28;20056;-89
2022/08/12 05:06:53;;;;;;;17.67;9.60;;;27.30;49.60;;;;;;5072759;28;20032;-89
2022/08/12 05:09:19;;;;;;;18.08;8.55;;;28.20;48.30;;;;;;5072632;28;20040;-89
2022/08/12 05:11:51;;;;;;;18.20;8.75;;;28.40;47.10;;;;;;5073455;28;20028;-90
2022/08/12 05:14:17;;;;;;;12.20;9.07;;;28.80;46.30;;;;;;5074927;28;20024;-89
2022/08/12 05:16:43;;;;;;;13.10;8.85;;;29.20;45.80;;;;;;5062015;28;20100;-89
2022/08/12 05:19:09;;;;;;;17.30;8.20;;;29.50;45.50;;;;;;5074939;28;20016;-89
2022/08/12 05:21:35;;;;;;;17.02;9.55;;;29.70;44.50;;;;;;5073854;28;20043;-90
2022/08/12 05:24:01;;;;;;;19.10;9.30;;;;;;;;;;5073216;28;20036;-88
2022/08/12 05:26:28;;;;;;;13.35;9.25;;;30.80;42.40;;;;;;5076901;28;20139;-89
2022/08/12 05:28:54;;;;;;;14.88;8.35;;;31.10;42.40;;;;;;5077690;28;20052;-90
2022/08/12 05:31:21;;;;;;;15.68;8.50;;;31.50;42.00;;;;;;5080163;28;20352;-89
2022/08/12 05:33:46;;;;;;;14.60;7.38;;;32.00;41.70;;;;;;5084469;28;20046;-89
2022/08/12 05:36:15;;;;;;;16.77;8.70;;;32.40;40.60;;;;;;5085726;28;20515;-88
2022/08/12 05:38:56;;;;;;;14.98;8.77;;;32.40;40.30;;;;;;5086026;28;20046;-89
2022/08/12 05:41:23;;;;;;;16.88;8.18;;;32.80;40.10;;;;;;5078402;28;20051;-89
2022/08/12 05:43:53;;;;;;;19.90;8.88;;;33.30;40.00;;;;;;5078600;28;20021;-91
2022/08/12 05:46:21;;;;;;;25.50;8.13;;;33.40;39.30;;;;;;5078166;28;20493;-87
2022/08/12 05:48:48;;;;;;;17.45;7.68;;;33.60;39.10;;;;;;5075724;28;20032;-88
2022/08/12 05:51:15;;;;;;;14.05;7.38;;;33.60;39.00;;;;;;5077089;28;20090;-89
2022/08/12 05:53:41;;;;;;;15.95;8.35;;;33.80;38.50;;;;;;5064216;28;20347;-87
2022/08/12 05:56:19;;;;;;;21.35;7.60;;;34.50;38.40;;;;;;5076039;28;20398;-90
2022/08/12 05:58:46;;;;;;;16.17;7.63;;;35.50;37.90;;;;;;5079180;28;20108;-89
2022/08/12 06:01:12;;;;;;;21.92;8.98;;;36.60;36.70;;;;;;5078645;28;20035;-92
2022/08/12 06:03:38;;;;;;;17.02;7.57;;;37.50;35.70;;;;;;5075956;28;20077;-88
2022/08/12 06:06:05;;;;;;;15.37;10.23;;;38.00;34.60;;;;;;5066190;28;20032;-89
2022/08/12 06:08:34;;;;;;;9.55;5.90;;;;;;;;;;5071557;28;20507;-88
2022/08/12 06:11:03;;;;;;;16.80;5.10;;;38.60;34.10;;;;;;5078307;28;20181;-89
2022/08/12 06:13:30;;;;;;;8.77;5.63;;;39.90;32.10;;;;;;5076146;28;20028;-90
2022/08/12 06:15:56;;;;;;;8.35;5.15;;;39.90;31.80;;;;;;5076338;28;20110;-90
2022/08/12 06:18:22;;;;;;;;;;;39.80;31.70;;;;;;5076843;28;20028;-88
2022/08/12 06:20:49;;;;;;;7.55;3.55;;;;;;;;;;5076385;28;19961;-89
2022/08/12 06:23:15;;;;;;;7.93;3.80;;;;;;;;;;5076570;28;20024;-88
2022/08/12 06:25:42;;;;;;;;;;;39.50;33.50;;;;;;5078961;28;20034;-84
2022/08/12 06:28:19;;;;;;;12.10;3.53;;;;;;;;;;5114026;28;20329;-88
2022/08/12 06:30:46;;;;;;;8.77;3.28;;;;;;;;;;5080434;28;20016;-88
2022/08/12 06:33:15;;;;;;;;;;;;;;;;;;5082715;28;20028;-89
2022/08/12 06:35:41;;;;;;;6.00;3.28;;;;;;;;;;5084787;28;19908;-87
2022/08/12 06:38:21;;;;;;;5.60;2.75;;;;;;;;;;5097126;28;20166;-87
2022/08/12 06:43:34;;;;;;;5.22;2.95;;;;;;;;;;5097218;28;20024;-90
2022/08/12 06:46:00;;;;;;;7.38;3.35;;;42.30;29.90;;;;;;5084251;28;20533;-89
2022/08/12 06:48:28;;;;;;;6.57;2.45;;;42.70;29.20;;;;;;5075801;28;20062;-88
2022/08/12 06:50:55;;;;;;;5.07;2.40;;;43.10;29.00;;;;;;5075637;28;20135;-89
2022/08/12 06:53:23;;;;;;;5.50;2.30;;;43.50;28.20;;;;;;5076357;28;20023;-90
2022/08/12 06:55:51;;;;;;;5.40;2.35;;;43.50;28.20;;;;;;5076779;28;20153;-90
2022/08/12 06:58:19;;;;;;;3.88;2.17;;;43.50;28.20;;;;;;5078749;28;20059;-91
2022/08/12 07:00:46;;;;;;;4.72;2.13;;;42.90;27.90;;;;;;5083092;28;20111;-89
2022/08/12 07:03:21;;;;;;;5.50;2.95;;;42.40;28.30;;;;;;5089931;28;20319;-89
2022/08/12 07:05:47;;;;;;;7.93;2.67;;;42.60;28.50;;;;;;5096593;28;20526;-89
2022/08/12 07:08:16;;;;;;;4.57;2.30;;;42.90;28.40;;;;;;5095830;28;20029;-89
2022/08/12 07:11:00;;;;;;;2.90;1.20;;;43.20;28.50;;;;;;5086706;28;20539;-90
2022/08/12 07:13:34;;;;;;;1.33;1.08;;;43.00;27.70;;;;;;5108513;28;20040;-89
2022/08/12 07:16:01;;;;;;;2.95;1.60;;;43.00;27.40;;;;;;5076142;28;20445;-89
2022/08/12 07:18:33;;;;;;;2.70;1.00;;;42.70;27.20;;;;;;5061817;28;20043;-89
2022/08/12 07:21:01;;;;;;;1.88;1.38;;;42.80;27.70;;;;;;5064391;28;20477;-88
2022/08/12 07:23:27;;;;;;;4.85;1.55;;;43.00;27.50;;;;;;5080455;28;20028;-88
2022/08/12 07:25:55;;;;;;;4.43;2.08;;;43.00;27.30;;;;;;5077356;28;20051;-89
2022/08/12 07:28:26;;;;;;;6.40;2.33;;;42.40;27.60;;;;;;5078728;28;20036;-89
2022/08/12 07:30:55;;;;;;;5.43;2.20;;;42.60;27.90;;;;;;5081334;28;20020;-89
2022/08/12 07:33:27;;;;;;;8.13;2.42;;;42.60;27.80;;;;;;5083344;28;20027;-89
2022/08/12 07:35:56;;;;;;;5.25;2.45;;;42.10;27.90;;;;;;5081232;28;20020;-89
2022/08/12 07:38:29;;;;;;;5.55;2.78;;;42.00;28.00;;;;;;5075618;28;20028;-89
2022/08/12 07:41:09;;;;;;;7.35;3.42;;;42.10;28.70;;;;;;5075674;28;20065;-88
2022/08/12 07:43:39;;;;;;;11.93;3.15;;;42.80;28.40;;;;;;5075347;28;20016;-89
2022/08/12 07:46:07;;;;;;;6.22;3.25;;;42.60;28.10;;;;;;5073982;28;20021;-89
2022/08/12 07:48:45;;;;;;;6.25;3.42;;;41.90;28.20;;;;;;5073689;28;20021;-89
2022/08/12 07:51:12;;;;;;;7.93;3.35;;;41.90;28.70;;;;;;5072963;28;20021;-89
2022/08/12 07:53:39;;;;;;;6.57;3.25;;;42.00;28.30;;;;;;5073878;28;20377;-90
2022/08/12 07:56:08;;;;;;;7.47;3.17;;;41.70;28.10;;;;;;5074544;28;20091;-89
2022/08/12 07:58:37;;;;;;;7.60;3.35;;;41.10;28.40;;;;;;5074416;28;20036;-89
2022/08/12 08:01:04;;;;;;;5.65;3.00;;;41.00;28.60;;;;;;5075895;28;20032;-89
2022/08/12 08:03:30;;;;;;;6.03;3.60;;;41.50;28.40;;;;;;5075055;28;20013;-90
2022/08/12 08:05:57;;;;;;;9.98;3.08;;;41.70;28.40;;;;;;5076581;28;20699;-89
2022/08/12 08:08:25;;;;;;;8.50;3.45;;;41.70;28.30;;;;;;5073851;28;20038;-86
2022/08/12 08:13:43;;;;;;;9.15;3.47;;;41.30;28.00;;;;;;5074706;28;20028;-87
2022/08/12 08:16:10;;;;;;;6.47;3.80;;;41.00;28.40;;;;;;5075074;28;20078;-88
2022/08/12 08:18:36;;;;;;;5.80;3.67;;;41.70;28.30;;;;;;5075646;28;20028;-89
2022/08/12 08:21:03;;;;;;;7.25;2.80;;;42.00;28.10;;;;;;5075433;28;20028;-87
2022/08/12 08:26:15;;;;;;;7.25;3.08;;;41.50;28.30;;;;;;5075609;28;20106;-89
2022/08/12 08:28:42;;;;;;;5.82;3.10;;;41.40;28.30;;;;;;5073101;28;20044;-89
2022/08/12 08:31:08;;;;;;;5.65;3.03;;;41.90;28.50;;;;;;5072089;28;20020;-89
2022/08/12 08:33:33;;;;;;;;;;;42.70;28.00;;;;;;5072046;28;20029;-89
2022/08/12 08:36:00;;;;;;;6.72;3.25;;;43.40;28.30;;;;;;5073411;28;19991;-89
2022/08/12 08:38:25;;;;;;;9.52;2.95;;;44.00;27.60;;;;;;5073273;28;20047;-89
2022/08/12 08:43:36;;;;;;;5.22;2.70;;;44.30;27.50;;;;;;5073005;28;20405;-88
2022/08/12 08:46:04;;;;;;;7.45;2.78;;;44.20;27.10;;;;;;5072399;28;20050;-88
2022/08/12 08:48:33;;;;;;;5.30;2.83;;;43.70;27.40;;;;;;5071361;28;20023;-88
2022/08/12 08:50:59;;;;;;;7.20;2.85;;;43.60;27.70;;;;;;5073054;28;20137;-88
2022/08/12 08:53:25;;;;;;;7.18;3.05;;;44.00;27.40;;;;;;5073087;28;20023;-89
2022/08/12 08:55:55;;;;;;;9.98;3.28;;;43.80;27.30;;;;;;5072937;28;20131;-87
2022/08/12 08:58:20;;;;;;;5.78;3.05;;;44.10;27.40;;;;;;5076811;28;20021;-89
2022/08/12 09:00:50;;;;;;;9.40;3.00;;;44.30;26.90;;;;;;5073264;28;20704;-87
2022/08/12 09:03:16;;;;;;;9.07;3.13;;;43.80;27.20;;;;;;5070886;28;20028;-88
2022/08/12 09:05:43;;;;;;;6.50;3.00;;;43.30;27.30;;;;;;5071590;28;20059;-87
2022/08/12 09:08:09;;;;;;;6.18;2.47;;;43.10;27.60;;;;;;5072578;28;20024;-89
2022/08/12 09:10:36;;;;;;;7.30;2.70;;;43.20;27.60;;;;;;5072738;28;20141;-88
2022/08/12 09:15:46;;;;;;;;;;;44.20;27.20;;;;;;5074036;28;20036;-88
2022/08/12 09:18:13;;;;;;;7.78;2.17;;;44.70;27.90;;;;;;5073208;28;20345;-88
2022/08/12 09:20:39;;;;;;;4.22;2.50;;;45.00;26.60;;;;;;5059304;28;20040;-88
2022/08/12 09:23:10;;;;;;;11.35;2.60;;;45.00;26.50;;;;;;5076368;28;20021;-91
2022/08/12 09:25:38;;;;;;;5.78;2.80;;;44.50;26.80;;;;;;5078186;28;20055;-89
2022/08/12 09:28:10;;;;;;;3.60;2.13;;;44.50;26.70;;;;;;5077737;28;20090;-88
2022/08/12 09:30:48;;;;;;;7.75;2.50;;;44.00;26.80;;;;;;5061305;28;20032;-88
2022/08/12 09:33:14;;;;;;;4.95;2.28;;;43.50;27.20;;;;;;5076031;28;20126;-88
2022/08/12 09:35:42;;;;;;;3.00;2.42;;;43.70;27.30;;;;;;5072670;28;20032;-91
2022/08/12 09:38:10;;;;;;;4.13;3.17;;;44.00;26.90;;;;;;5078051;28;20074;-90
2022/08/12 09:40:36;;;;;;;5.97;3.10;;;43.00;27.00;;;;;;5079802;28;20036;-87
2022/08/12 09:45:49;;;;;;;4.25;2.78;;;41.30;27.90;;;;;;5074171;28;20079;-91
2022/08/12 09:48:18;;;;;;;7.88;3.00;;;41.40;27.90;;;;;;5072566;28;20025;-90
2022/08/12 09:50:51;;;;;;;5.03;2.45;;;41.50;27.80;;;;;;5072398;28;20020;-90
2022/08/12 09:53:23;;;;;;;5.50;2.88;;;41.80;27.90;;;;;;5072809;28;20025;-89
2022/08/12 09:55:54;;;;;;;5.30;2.55;;;41.60;27.80;;;;;;5074085;28;20052;-89
2022/08/12 09:58:27;;;;;;;6.78;3.17;;;41.90;27.70;;;;;;5073770;28;20017;-90
2022/08/12 10:00:55;;;;;;;8.05;3.13;;;42.00;27.60;;;;;;5080051;28;20040;-89
2022/08/12 10:03:25;;;;;;;6.22;3.40;;;41.90;27.70;;;;;;5077308;28;20028;-89
2022/08/12 10:05:52;;;;;;;6.78;3.20;;;41.70;27.80;;;;;;5073070;28;20035;-90
2022/08/12 10:08:20;;;;;;;7.30;2.90;;;41.80;27.80;;;;;;5072564;28;20036;-90
2022/08/12 10:13:41;;;;;;;4.85;3.20;;;41.80;27.80;;;;;;5076635;28;20042;-89
2022/08/12 10:16:10;;;;;;;6.32;3.20;;;;;;;;;;5075655;28;20020;-89
2022/08/12 10:18:42;;;;;;;3.97;3.03;;;41.30;27.80;;;;;;5076256;28;20437;-91
2022/08/12 10:21:08;;;;;;;6.75;2.80;;;41.00;29.00;;;;;;5076691;28;20032;-89
2022/08/12 10:23:36;;;;;;;6.53;3.20;;;41.10;28.20;;;;;;5095558;28;20450;-90
2022/08/12 10:31:32;;;;;;;5.82;2.40;;;40.20;28.20;;;;;;5077401;28;20070;-91
2022/08/12 10:33:58;;;;;;;7.05;2.83;;;;;;;;;;5072534;28;20018;-89
2022/08/12 10:36:23;;;;;;;7.45;3.28;;;38.90;28.60;;;;;;5077631;28;20028;-89
2022/08/12 10:38:50;;;;;;;4.70;2.57;;;36.10;30.90;;;;;;5075617;28;20032;-90
2022/08/12 10:44:04;;;;;;;5.95;2.63;;;33.70;31.30;;;;;;5075867;28;19968;-89
2022/08/12 10:46:31;;;;;;;3.13;2.70;;;32.60;34.30;;;;;;5074681;28;20031;-89
2022/08/12 10:48:58;;;;;;;6.38;3.03;;;32.00;34.50;;;;;;5076901;28;20031;-89
2022/08/12 10:51:29;;;;;;;;;;;;;;;;;;5073299;28;20047;-89
2022/08/12 10:54:15;;;;;;;7.05;3.30;;;31.40;35.00;;;;;;5076422;28;20395;-89
2022/08/12 10:56:48;;;;;;;4.60;2.70;;;;;;;;;;5075263;28;20032;-87
2022/08/12 10:59:14;;;;;;;3.00;2.25;;;30.10;36.80;;;;;;5075153;28;20027;-89
2022/08/12 11:01:41;;;;;;;5.07;2.53;;;29.70;37.10;;;;;;5074366;28;20162;-89
2022/08/12 11:04:12;;;;;;;6.40;3.08;;;29.50;37.40;;;;;;5075733;28;20029;-87
2022/08/12 11:06:46;;;;;;;5.75;3.58;;;29.40;37.90;;;;;;5075962;28;20078;-88
2022/08/12 11:09:16;;;;;;;9.70;4.75;;;29.30;38.30;;;;;;5075523;28;20020;-88
2022/08/12 11:11:43;;;;;;;4.28;2.97;;;29.20;38.10;;;;;;5062920;28;20041;-86
2022/08/12 11:14:09;;;;;;;7.47;3.38;;;29.10;37.80;;;;;;5078767;28;20067;-88
2022/08/12 11:16:37;;;;;;;5.78;2.92;;;28.90;38.40;;;;;;5075420;28;20016;-89
2022/08/12 11:19:03;;;;;;;7.13;3.47;;;28.80;39.30;;;;;;5075390;28;20021;-89
2022/08/12 11:21:29;;;;;;;4.18;3.40;;;28.70;38.70;;;;;;5075141;28;20149;-89
2022/08/12 11:23:54;;;;;;;3.30;2.08;;;28.60;38.40;;;;;;5074965;28;20021;-88
2022/08/12 11:26:20;;;;;;;4.18;2.65;;;28.40;38.40;;;;;;5075990;28;20115;-88
2022/08/12 11:28:46;;;;;;;3.28;2.22;;;28.30;38.60;;;;;;5074294;28;20069;-89
2022/08/12 11:31:12;;;;;;;3.08;2.63;;;28.20;38.70;;;;;;5076931;28;20109;-88
2022/08/12 11:33:38;;;;;;;5.43;2.67;;;;;;;;;;5072346;28;20043;-89
2022/08/12 11:36:06;;;;;;;7.30;3.15;;;28.00;38.10;;;;;;5073911;28;20025;-89
2022/08/12 11:38:32;;;;;;;6.28;2.70;;;27.80;39.40;;;;;;5077729;28;20165;-89
2022/08/12 11:40:58;;;;;;;3.78;2.70;;;27.90;39.20;;;;;;5077588;28;20067;-88
2022/08/12 11:43:23;;;;;;;5.20;3.00;;;27.80;39.70;;;;;;5086340;28;20028;-89
2022/08/12 11:45:49;;;;;;;4.10;2.33;;;27.80;40.00;;;;;;5092174;28;20029;-90
2022/08/12 11:48:15;;;;;;;4.47;3.85;;;27.80;40.00;;;;;;5090810;28;20021;-91
2022/08/12 11:50:44;;;;;;;4.70;2.90;;;27.70;40.30;;;;;;5076205;28;20439;-89
2022/08/12 11:53:10;;;;;;;6.57;2.80;;;27.70;40.20;;;;;;5074770;28;20450;-89
2022/08/12 11:55:36;;;;;;;4.93;2.88;;;27.70;41.00;;;;;;5075464;28;20050;-89
2022/08/12 11:58:02;;;;;;;3.13;2.80;;;27.70;39.80;;;;;;5074628;28;20056;-88
2022/08/12 12:00:28;;;;;;;4.95;2.47;;;27.70;39.60;;;;;;5060853;28;20046;-89
2022/08/12 12:02:54;;;;;;;2.80;2.55;;;27.60;39.80;;;;;;5062471;28;20032;-88
2022/08/12 12:05:20;;;;;;;4.38;2.25;;;27.60;39.80;;;;;;5071874;28;20025;-88
2022/08/12 12:07:46;;;;;;;9.40;3.33;;;27.50;39.80;;;;;;5074305;28;20382;-88
2022/08/12 12:10:17;;;;;;;3.33;2.83;;;27.50;39.50;;;;;;5071838;28;20492;-89
2022/08/12 12:12:43;;;;;;;5.65;3.05;;;27.50;39.50;;;;;;5060701;28;20024;-88
2022/08/12 12:15:09;;;;;;;3.83;3.22;;;27.70;46.80;;;;;;5057859;28;20032;-89
2022/08/12 12:17:39;;;;;;;6.78;2.95;;;27.60;45.90;;;;;;5073667;28;20070;-89
2022/08/12 12:20:10;;;;;;;5.13;2.28;;;27.60;44.00;;;;;;5072945;28;20037;-88
2022/08/12 12:22:37;;;;;;;7.90;2.78;;;27.60;41.40;;;;;;5076844;28;20009;-89
2022/08/12 12:25:03;;;;;;;5.28;2.58;;;27.40;40.00;;;;;;5077671;28;20163;-91
2022/08/12 12:27:46;;;;;;;8.00;2.67;;;27.50;40.00;;;;;;5079177;28;20497;-91
2022/08/12 12:30:13;;;;;;;6.05;2.95;;;27.50;40.00;;;;;;5079283;28;20025;-89
2022/08/12 12:32:39;;;;;;;2.80;2.40;;;27.50;40.40;;;;;;5090125;28;20008;-88
2022/08/12 12:35:05;;;;;;;7.80;2.50;;;27.50;39.80;;;;;;5091357;28;20029;-88
2022/08/12 12:37:31;;;;;;;6.55;2.70;;;27.50;40.10;;;;;;5088079;28;20025;-89
2022/08/12 12:39:57;;;;;;;3.55;2.15;;;27.50;40.30;;;;;;5086504;28;20024;-87
2022/08/12 12:42:23;;;;;;;5.25;3.10;;;27.40;39.80;;;;;;5090045;28;20027;-89
2022/08/12 12:44:49;;;;;;;5.85;2.60;;;27.40;39.90;;;;;;5080796;28;20386;-90
2022/08/12 12:47:15;;;;;;;4.90;2.35;;;27.40;39.40;;;;;;5075953;28;20024;-89
2022/08/12 12:49:41;;;;;;;5.00;2.33;;;27.40;38.60;;;;;;5076336;28;20020;-88
2022/08/12 12:52:08;;;;;;;2.73;2.20;;;27.30;38.40;;;;;;5076034;28;20028;-89
2022/08/12 12:54:34;;;;;;;4.80;2.67;;;27.30;39.50;;;;;;5074148;28;20020;-89
2022/08/12 12:56:59;;;;;;;5.65;2.45;;;27.30;40.10;;;;;;5076823;28;20104;-89
2022/08/12 12:59:27;;;;;;;6.88;2.30;;;27.30;40.00;;;;;;5076383;28;20036;-87
2022/08/12 13:01:53;;;;;;;5.50;1.77;;;27.40;39.70;;;;;;5075358;28;20044;-89
2022/08/12 13:04:19;;;;;;;3.00;2.17;;;27.30;40.50;;;;;;5077493;28;20021;-90
2022/08/12 13:06:50;;;;;;;5.93;2.47;;;27.20;40.10;;;;;;5074692;28;20077;-90
2022/08/12 13:09:17;;;;;;;3.88;2.70;;;27.20;40.80;;;;;;5074016;28;20017;-89
2022/08/12 13:11:43;;;;;;;4.47;2.30;;;27.30;40.70;;;;;;5072615;28;20029;-89
2022/08/12 13:14:10;;;;;;;7.88;2.75;;;27.30;40.80;;;;;;5073732;28;20050;-90
2022/08/12 13:16:37;;;;;;;7.00;2.78;;;27.30;40.60;;;;;;5076256;28;20020;-89
2022/08/12 13:19:02;;;;;;;3.17;2.60;;;27.30;40.40;;;;;;5080037;28;20029;-89
2022/08/12 13:21:29;;;;;;;5.53;2.50;;;27.30;40.40;;;;;;5087847;28;20046;-89
2022/08/12 13:23:55;;;;;;;6.30;2.80;;;27.30;40.60;;;;;;5087597;28;20016;-88
2022/08/12 13:26:21;;;;;;;5.43;2.70;;;27.40;41.00;;;;;;5081366;28;20095;-89
2022/08/12 13:28:52;;;;;;;5.78;2.20;;;27.40;41.20;;;;;;5072187;28;20074;-88
2022/08/12 13:31:20;;;;;;;6.78;2.70;;;27.40;40.60;;;;;;5074295;28;20482;-89
2022/08/12 13:33:46;;;;;;;3.20;2.33;;;27.40;41.00;;;;;;5073563;28;20063;-89
2022/08/12 13:36:15;;;;;;;4.93;2.50;;;27.40;41.40;;;;;;5060821;28;20031;-88
2022/08/12 13:38:43;;;;;;;8.43;3.55;;;27.40;40.80;;;;;;5073924;28;20025;-89
2022/08/12 13:41:31;;;;;;;5.30;2.50;;;27.40;40.90;;;;;;5072432;28;20086;-89
2022/08/12 13:44:06;;;;;;;6.53;2.35;;;27.40;40.90;;;;;;5075493;28;20020;-90
2022/08/12 13:46:33;;;;;;;5.13;2.90;;;27.30;41.20;;;;;;5062391;28;20043;-90
2022/08/12 13:49:01;;;;;;;5.15;2.40;;;27.30;41.20;;;;;;5105832;28;20029;-88
2022/08/12 13:51:27;;;;;;;6.20;2.80;;;27.30;41.10;;;;;;5076179;28;20025;-88
2022/08/12 13:53:54;;;;;;;5.57;3.00;;;27.30;41.40;;;;;;5077105;28;20428;-90
2022/08/12 13:56:22;;;;;;;6.60;2.63;;;27.30;41.70;;;;;;5082113;28;20024;-89
2022/08/12 13:58:50;;;;;;;6.00;2.72;;;27.40;41.50;;;;;;5081706;28;20028;-88
2022/08/12 14:01:17;;;;;;;5.30;2.88;;;27.30;41.70;;;;;;5080825;28;20393;-88
2022/08/12 14:03:43;;;;;;;8.98;2.80;;;27.30;41.70;;;;;;5079695;28;20119;-89
2022/08/12 14:06:11;;;;;;;5.95;3.35;;;27.50;42.00;;;;;;5077685;28;20028;-88
2022/08/12 14:08:37;;;;;;;4.57;3.15;;;27.70;41.40;;;;;;5076878;28;20020;-90
2022/08/12 14:11:03;;;;;;;5.60;3.60;;;28.20;41.10;;;;;;5078320;28;20055;-88
2022/08/12 14:13:38;;;;;;;7.85;2.92;;;28.70;40.70;;;;;;5079954;28;20432;-90
2022/08/12 14:16:06;;;;;;;2.67;2.33;;;29.60;39.60;;;;;;5077667;28;20017;-89
2022/08/12 14:18:34;;;;;;;5.47;2.35;;;30.50;38.80;;;;;;5075904;28;20020;-89
2022/08/12 14:21:03;;;;;;;5.85;2.22;;;31.00;37.40;;;;;;5078396;28;20055;-89
2022/08/12 14:23:32;;;;;;;7.57;2.80;;;31.20;37.10;;;;;;5075828;28;20020;-90
2022/08/12 14:26:00;;;;;;;4.40;2.40;;;31.40;36.80;;;;;;5076230;28;20039;-89
2022/08/12 14:28:29;;;;;;;5.30;2.25;;;31.50;36.60;;;;;;5077826;28;20081;-88
2022/08/12 14:31:01;;;;;;;4.30;3.00;;;31.60;36.60;;;;;;5078458;28;20020;-90
2022/08/12 14:33:35;;;;;;;6.97;2.58;;;31.80;36.50;;;;;;5076803;28;20028;-87
2022/08/12 14:36:03;;;;;;;10.48;3.00;;;31.90;36.70;;;;;;5075380;28;20492;-87
2022/08/12 14:38:32;;;;;;;6.43;2.38;;;32.10;36.20;;;;;;5077780;28;20028;-89
2022/08/12 14:41:02;;;;;;;3.88;2.03;;;31.90;35.30;;;;;;5076079;28;20044;-88
2022/08/12 14:43:32;;;;;;;5.95;2.55;;;31.40;35.60;;;;;;5077197;28;20111;-87
2022/08/12 14:46:02;;;;;;;5.03;2.60;;;30.60;36.30;;;;;;5076375;28;20087;-90
2022/08/12 14:48:31;;;;;;;5.40;2.13;;;29.80;37.20;;;;;;5079732;28;20031;-87